Time;durP1;ratioP1;P1;durP2;ratioP2;P2;SDS_P1;SDS_P2;PMS_P1;PMS_P2;Temp;Humidity;BMP_temperature;BMP_pressure;BME280_temperature;BME280_humidity;BME280_pressure;Samples;Min_cycle;Max_cycle;Signal;HPM_P1;HPM_P2
2023/09/04 00:04:51;;;;;;;7.80;5.30;;;;;;;20.25;52.55;100839.40;104731;1292;601096;-71
2023/09/04 00:07:28;;;;;;;6.10;4.80;;;;;;;20.20;52.50;100840.52;107099;1267;60186;-71
2023/09/04 00:09:57;;;;;;;6.80;5.10;;;;;;;20.20;52.59;100843.40;107119;1267;59468;-71
2023/09/04 00:12:26;;;;;;;7.30;5.40;;;;;;;20.17;52.48;100844.94;107034;1272;74460;-72
2023/09/04 00:14:56;;;;;;;8.80;5.50;;;;;;;20.14;52.15;100846.26;107204;1267;71609;-72
2023/09/04 00:17:25;;;;;;;7.40;5.50;;;;;;;20.12;52.18;100851.35;106582;1268;767745;-71
2023/09/04 00:19:54;;;;;;;6.70;5.20;;;;;;;20.11;52.31;100851.69;107246;1268;60163;-71
2023/09/04 00:22:24;;;;;;;8.50;5.60;;;;;;;20.09;52.36;100852.81;107264;1266;59991;-71
2023/09/04 00:24:52;;;;;;;6.90;5.20;;;;;;;20.08;52.41;100850.77;107284;1269;72357;-70
2023/09/04 00:27:21;;;;;;;7.30;5.30;;;;;;;20.08;52.39;100856.36;107220;1264;72738;-70
2023/09/04 00:29:50;;;;;;;7.60;5.40;;;;;;;20.08;52.63;100856.10;107369;1265;72585;-71
2023/09/04 00:32:19;;;;;;;8.90;5.40;;;;;;;20.08;52.64;100860.15;107296;1267;60163;-72
2023/09/04 00:34:48;;;;;;;7.10;5.30;;;;;;;20.09;52.73;100862.80;107333;1264;60126;-72
2023/09/04 00:37:22;;;;;;;8.20;5.90;;;;;;;20.08;53.04;100859.70;107286;1264;71442;-71
2023/09/04 00:39:52;;;;;;;8.30;5.30;;;;;;;20.08;53.06;100862.07;107274;1264;72674;-71
2023/09/04 00:42:35;;;;;;;7.90;5.60;;;;;;;20.06;53.07;100861.44;107435;1267;72772;-72
2023/09/04 00:45:06;;;;;;;7.70;5.50;;;;;;;20.05;53.06;100862.78;107745;1262;59986;-71
2023/09/04 00:47:51;;;;;;;8.10;5.80;;;;;;;20.03;53.06;100865.71;107780;1257;59506;-71
2023/09/04 00:50:41;;;;;;;8.50;5.60;;;;;;;20.03;53.30;100866.15;107722;1257;71783;-71
2023/09/04 00:53:11;;;;;;;6.90;5.10;;;;;;;20.01;53.36;100870.55;107647;1258;73972;-72
2023/09/04 00:55:40;;;;;;;7.50;5.20;;;;;;;19.99;53.27;100867.58;107727;1258;71745;-71
2023/09/04 00:58:13;;;;;;;7.30;5.50;;;;;;;19.98;53.06;100869.07;107724;1262;60107;-71
2023/09/04 01:00:42;;;;;;;6.60;4.90;;;;;;;19.95;53.00;100870.88;107622;1258;59537;-71
2023/09/04 01:03:13;;;;;;;7.50;5.50;;;;;;;19.94;53.07;100869.60;108064;1254;73323;-71
2023/09/04 01:05:48;;;;;;;7.00;5.50;;;;;;;19.90;52.98;100869.20;108015;1254;71304;-71
2023/09/04 01:08:19;;;;;;;7.90;5.80;;;;;;;19.85;52.94;100870.31;108007;1254;71584;-70
2023/09/04 01:11:05;;;;;;;7.10;5.40;;;;;;;19.79;53.16;100865.54;107981;1254;59930;-71
2023/09/04 01:13:53;;;;;;;7.80;5.40;;;;;;;19.74;53.26;100866.81;108091;1254;59615;-71
2023/09/04 01:16:23;;;;;;;7.40;5.80;;;;;;;19.71;53.46;100865.80;107998;1254;73020;-71
2023/09/04 01:18:52;;;;;;;8.10;5.90;;;;;;;19.68;53.63;100868.81;108004;1255;71869;-70
2023/09/04 01:21:21;;;;;;;8.70;6.20;;;;;;;19.66;53.73;100865.98;107935;1254;72687;-72
2023/09/04 01:23:52;;;;;;;9.00;6.30;;;;;;;19.64;53.63;100867.50;108052;1254;60057;-71
2023/09/04 01:26:27;;;;;;;8.50;6.00;;;;;;;19.60;53.77;100861.88;107951;1254;59016;-71
2023/09/04 01:29:28;;;;;;;8.60;5.70;;;;;;;19.56;54.06;100862.80;108047;1254;72097;-71
2023/09/04 01:32:04;;;;;;;7.60;6.10;;;;;;;19.51;54.25;100858.91;108004;1254;72785;-71
2023/09/04 01:34:36;;;;;;;7.00;5.80;;;;;;;19.47;54.36;100856.52;107964;1254;72707;-71
2023/09/04 01:37:06;;;;;;;9.00;6.00;;;;;;;19.43;54.51;100859.11;107955;1254;63614;-71
2023/09/04 01:39:34;;;;;;;8.80;5.90;;;;;;;19.39;54.47;100861.86;107747;1254;59971;-71
2023/09/04 01:42:05;;;;;;;7.70;6.10;;;;;;;19.37;54.44;100864.23;107933;1254;72762;-71
2023/09/04 01:44:33;;;;;;;8.40;6.10;;;;;;;19.36;54.43;100861.94;108016;1254;71665;-71
2023/09/04 01:47:01;;;;;;;8.00;6.10;;;;;;;19.33;54.29;100861.17;108085;1254;71438;-71
2023/09/04 01:49:31;;;;;;;8.70;5.90;;;;;;;19.31;54.39;100859.02;107962;1254;61760;-69
2023/09/04 01:52:00;;;;;;;7.90;5.00;;;;;;;19.29;54.44;100863.42;107861;1254;59528;-71
2023/09/04 01:54:29;;;;;;;9.50;5.70;;;;;;;19.27;54.36;100866.59;108019;1254;73111;-71
2023/09/04 01:56:59;;;;;;;7.20;5.80;;;;;;;19.27;54.43;100868.34;108049;1257;71985;-71
2023/09/04 01:59:27;;;;;;;7.50;5.90;;;;;;;19.25;54.56;100871.25;107974;1254;73922;-71
2023/09/04 02:01:56;;;;;;;7.50;6.00;;;;;;;19.20;54.64;100874.02;107839;1254;60089;-71
2023/09/04 02:04:25;;;;;;;7.30;5.40;;;;;;;19.16;54.46;100875.52;107942;1254;59640;-71
2023/09/04 02:06:54;;;;;;;8.20;5.30;;;;;;;19.14;54.52;100872.73;107849;1254;71303;-71
2023/09/04 02:09:23;;;;;;;8.10;6.10;;;;;;;19.13;54.38;100876.68;107863;1254;72748;-71
2023/09/04 02:11:53;;;;;;;6.70;5.10;;;;;;;19.11;54.24;100876.29;107849;1259;72357;-71
2023/09/04 02:14:22;;;;;;;8.80;5.70;;;;;;;19.10;54.28;100879.46;107945;1257;60728;-70
2023/09/04 02:16:57;;;;;;;8.30;5.30;;;;;;;19.09;54.33;100877.27;107927;1254;59608;-70
2023/09/04 02:19:27;;;;;;;7.00;5.70;;;;;;;19.07;54.34;100878.45;107904;1254;73073;-70
2023/09/04 02:21:56;;;;;;;7.20;5.20;;;;;;;19.06;54.35;100879.02;107962;1254;73801;-71
2023/09/04 02:24:25;;;;;;;8.50;5.90;;;;;;;19.05;54.30;100874.05;107994;1254;72690;-71
2023/09/04 02:26:54;;;;;;;8.20;5.40;;;;;;;19.02;54.37;100871.14;107936;1254;59727;-71
2023/09/04 02:29:23;;;;;;;8.40;5.30;;;;;;;18.99;54.34;100868.45;107946;1254;60007;-71
2023/09/04 02:31:52;;;;;;;7.90;5.40;;;;;;;18.96;54.35;100866.30;107911;1254;73154;-71
2023/09/04 02:34:21;;;;;;;7.90;5.60;;;;;;;18.94;54.48;100869.41;107920;1254;71401;-70
2023/09/04 02:36:50;;;;;;;8.50;5.40;;;;;;;18.91;54.64;100860.17;107826;1257;72654;-70
2023/09/04 02:39:19;;;;;;;7.30;5.50;;;;;;;18.87;54.71;100853.59;108035;1253;60686;-71
2023/09/04 02:41:47;;;;;;;8.70;5.20;;;;;;;18.85;54.80;100849.59;107986;1253;59506;-71
2023/09/04 02:44:15;;;;;;;7.60;5.50;;;;;;;18.83;54.81;100848.51;107998;1254;73079;-72
2023/09/04 02:46:56;;;;;;;8.90;5.50;;;;;;;18.82;55.02;100851.08;107773;1254;71494;-72
2023/09/04 02:49:26;;;;;;;10.00;6.10;;;;;;;18.81;55.05;100854.27;107888;1254;72696;-71
2023/09/04 02:51:56;;;;;;;8.70;5.70;;;;;;;18.81;55.04;100859.14;108038;1254;59624;-71
2023/09/04 02:54:25;;;;;;;7.20;5.40;;;;;;;18.82;54.99;100862.59;107983;1254;59494;-72
2023/09/04 02:56:53;;;;;;;7.20;5.10;;;;;;;18.84;55.26;100869.14;107957;1254;73060;-72
2023/09/04 02:59:22;;;;;;;7.50;5.40;;;;;;;18.85;55.31;100875.63;107886;1254;71445;-72
2023/09/04 03:01:53;;;;;;;9.20;5.10;;;;;;;18.83;55.25;100881.36;107923;1254;72627;-71
2023/09/04 03:04:21;;;;;;;9.10;5.30;;;;;;;18.85;55.20;100879.42;107903;1253;60099;-72
2023/09/04 03:06:52;;;;;;;7.70;4.90;;;;;;;18.88;55.26;100877.90;107988;1254;60033;-73
2023/09/04 03:09:28;;;;;;;8.60;5.40;;;;;;;18.90;55.06;100876.33;108097;1253;73421;-73
2023/09/04 03:12:00;;;;;;;7.30;5.40;;;;;;;18.92;54.94;100878.72;107907;1254;72339;-73
2023/09/04 03:14:31;;;;;;;7.10;5.20;;;;;;;18.92;55.07;100881.53;108041;1254;71744;-71
2023/09/04 03:17:04;;;;;;;8.10;5.70;;;;;;;18.93;55.05;100882.36;107905;1260;60813;-73
2023/09/04 03:19:40;;;;;;;7.80;5.60;;;;;;;18.93;55.03;100881.45;107850;1255;60028;-72
2023/09/04 03:22:14;;;;;;;7.20;5.40;;;;;;;18.94;54.91;100879.64;107881;1254;71823;-72
2023/09/04 03:24:56;;;;;;;7.40;5.40;;;;;;;18.92;54.74;100879.97;108064;1254;71615;-72
2023/09/04 03:27:33;;;;;;;6.70;5.20;;;;;;;18.90;54.71;100876.02;108131;1257;72363;-73
2023/09/04 03:30:24;;;;;;;8.00;5.40;;;;;;;18.87;54.51;100878.88;108004;1254;60108;-72
2023/09/04 03:33:16;;;;;;;7.50;5.00;;;;;;;18.83;54.62;100880.87;108016;1254;59538;-72
2023/09/04 03:36:03;;;;;;;6.70;4.90;;;;;;;18.80;54.65;100878.02;107749;1254;72595;-72
2023/09/04 03:38:46;;;;;;;7.60;5.30;;;;;;;18.77;54.58;100878.71;107823;1254;75229;-72
2023/09/04 03:41:40;;;;;;;6.10;4.30;;;;;;;18.77;54.71;100882.26;107954;1258;74750;-71
2023/09/04 03:44:37;;;;;;;7.90;5.40;;;;;;;18.78;54.68;100881.59;107997;1254;59872;-72
2023/09/04 03:47:21;;;;;;;8.00;5.40;;;;;;;18.79;54.74;100883.14;108006;1254;60384;-71
2023/09/04 03:50:16;;;;;;;7.40;5.50;;;;;;;18.83;54.83;100883.70;107919;1254;72841;-71
2023/09/04 04:24:50;;;;;;;8.90;5.30;;;;;;;19.57;53.83;100906.58;107811;1254;60847;-72
2023/09/04 04:27:19;;;;;;;8.40;5.30;;;;;;;19.61;53.87;100905.92;107955;1255;59702;-72
2023/09/04 04:29:53;;;;;;;7.20;5.30;;;;;;;19.64;53.71;100898.38;107962;1254;72106;-72
2023/09/04 04:32:26;;;;;;;6.70;5.00;;;;;;;19.68;53.64;100896.27;107928;1254;72794;-72
2023/09/04 04:34:56;;;;;;;;;;;;;;;19.73;53.75;100896.42;108133;1257;72736;-71
2023/09/04 04:37:25;;;;;;;6.80;5.10;;;;;;;19.77;53.65;100898.17;107862;1257;60321;-72
2023/09/04 04:39:53;;;;;;;7.50;5.50;;;;;;;19.80;53.58;100896.95;107889;1253;60991;-71
2023/09/04 04:42:27;;;;;;;7.40;5.20;;;;;;;19.86;53.67;100900.33;107716;1254;73845;-72
2023/09/04 04:44:59;;;;;;;7.50;5.20;;;;;;;19.93;53.66;100899.05;108022;1254;72286;-71
2023/09/04 04:47:29;;;;;;;7.80;4.90;;;;;;;19.98;53.52;100898.22;107951;1254;72748;-71
2023/09/04 04:50:04;;;;;;;6.00;4.90;;;;;;;20.04;53.43;100900.83;107816;1257;60575;-71
2023/09/04 04:52:35;;;;;;;6.40;4.90;;;;;;;20.10;53.14;100904.16;108033;1254;60802;-70
2023/09/04 04:55:07;;;;;;;6.30;4.30;;;;;;;20.15;53.22;100905.48;107816;1256;73969;-71
2023/09/04 04:57:41;;;;;;;6.60;4.40;;;;;;;20.20;53.29;100907.23;107906;1254;73185;-71
2023/09/04 05:00:12;;;;;;;6.70;4.90;;;;;;;20.25;52.89;100910.30;107816;1257;73072;-71
2023/09/04 05:02:42;;;;;;;8.60;4.90;;;;;;;20.27;52.66;100915.33;107904;1254;61244;-72
2023/09/04 05:05:11;;;;;;;5.60;4.00;;;;;;;20.33;52.50;100920.48;107806;1254;59006;-71
2023/09/04 05:07:41;;;;;;;5.80;5.10;;;;;;;20.35;51.89;100923.30;107723;1253;71627;-71
2023/09/04 05:10:14;;;;;;;7.00;5.10;;;;;;;20.36;51.59;100921.94;108014;1254;72788;-72
2023/09/04 05:12:42;;;;;;;9.50;4.80;;;;;;;20.41;51.37;100922.08;107923;1257;72627;-71
2023/09/04 05:15:11;;;;;;;7.40;5.00;;;;;;;20.42;51.24;100923.45;107745;1254;60733;-72
2023/09/04 05:17:40;;;;;;;8.20;5.30;;;;;;;20.45;51.50;100920.50;107736;1254;59138;-72
2023/09/04 05:20:11;;;;;;;8.60;5.30;;;;;;;20.51;50.98;100926.52;107845;1254;73886;-72
2023/09/04 05:22:41;;;;;;;7.50;4.70;;;;;;;20.54;50.79;100927.96;107858;1254;73149;-72
2023/09/04 05:25:12;;;;;;;7.00;4.60;;;;;;;20.57;50.66;100927.84;107799;1254;71652;-73
2023/09/04 05:27:40;;;;;;;8.10;4.90;;;;;;;20.60;50.54;100932.90;107965;1256;60488;-73
2023/09/04 05:30:15;;;;;;;7.30;5.00;;;;;;;20.62;50.58;100930.40;107900;1254;60316;-72
2023/09/04 05:32:47;;;;;;;6.40;4.50;;;;;;;20.61;50.49;100933.73;107861;1254;72714;-71
2023/09/04 05:35:17;;;;;;;6.90;4.50;;;;;;;20.62;50.51;100939.48;107719;1253;72826;-72
2023/09/04 05:37:47;;;;;;;7.90;4.90;;;;;;;20.67;50.56;100939.42;107927;1256;70941;-72
2023/09/04 05:40:15;;;;;;;7.50;4.90;;;;;;;20.71;50.73;100938.54;107930;1257;61078;-71
2023/09/04 05:42:44;;;;;;;7.90;5.20;;;;;;;20.77;50.33;100940.83;108200;1254;60319;-73
2023/09/04 05:45:13;;;;;;;6.30;4.80;;;;;;;20.87;50.20;100943.29;108364;1255;73843;-71
2023/09/04 05:47:43;;;;;;;7.20;5.00;;;;;;;20.94;50.30;100944.63;107916;1254;71705;-71
2023/09/04 05:50:13;;;;;;;9.10;5.20;;;;;;;21.02;50.52;100941.43;107743;1254;71493;-71
2023/09/04 05:52:42;;;;;;;8.20;5.00;;;;;;;21.08;50.25;100941.73;107870;1254;62211;-73
2023/09/04 05:55:11;;;;;;;7.50;4.60;;;;;;;21.15;50.30;100941.64;107753;1254;60428;-72
2023/09/04 05:57:41;;;;;;;7.50;5.80;;;;;;;21.20;50.10;100937.84;107898;1254;75284;-73
2023/09/04 06:00:11;;;;;;;8.50;5.70;;;;;;;21.25;50.24;100946.31;109000;1254;71238;-71
2023/09/04 06:02:39;;;;;;;9.00;6.00;;;;;;;21.32;50.31;100949.33;109036;1254;71244;-71
2023/09/04 06:05:14;;;;;;;9.90;7.40;;;;;;;21.37;49.92;100955.68;108967;1254;60179;-72
2023/09/04 06:07:45;;;;;;;7.90;5.80;;;;;;;21.38;49.90;100962.64;109163;1252;59987;-72
2023/09/04 06:10:15;;;;;;;9.60;5.60;;;;;;;21.42;49.96;100966.63;109063;1256;76012;-71
2023/09/04 06:12:52;;;;;;;7.40;5.70;;;;;;;21.50;49.95;100968.91;109030;1254;72665;-72
2023/09/04 06:15:20;;;;;;;6.60;5.30;;;;;;;21.59;50.20;100980.64;109000;1254;72678;-72
2023/09/04 06:17:49;;;;;;;6.00;5.00;;;;;;;21.64;49.90;100979.75;109090;1254;60039;-72
2023/09/04 06:20:22;;;;;;;8.00;5.70;;;;;;;21.69;49.49;100983.61;108966;1256;59371;-72
2023/09/04 06:22:53;;;;;;;8.00;5.40;;;;;;;21.73;49.47;100985.95;109041;1254;72633;-72
2023/09/04 06:25:25;;;;;;;7.60;5.70;;;;;;;21.78;49.36;100985.92;109106;1256;72687;-73
2023/09/04 06:27:55;;;;;;;6.50;5.10;;;;;;;21.87;49.42;100987.94;109002;1255;72521;-72
2023/09/04 06:30:24;;;;;;;9.80;5.10;;;;;;;21.89;49.72;100989.34;109005;1254;58798;-72
2023/09/04 06:32:53;;;;;;;8.30;5.20;;;;;;;22.01;49.55;100987.75;109215;1254;59650;-71
2023/09/04 06:35:23;;;;;;;6.90;4.80;;;;;;;22.15;49.20;100983.09;109199;1253;72738;-72
2023/09/04 06:38:02;;;;;;;7.00;5.30;;;;;;;22.26;49.15;100984.73;109294;1254;72892;-72
2023/09/04 06:40:30;;;;;;;7.30;5.30;;;;;;;22.37;48.73;100986.20;109229;1254;71540;-72
2023/09/04 06:42:59;;;;;;;9.20;5.70;;;;;;;22.45;48.40;100988.41;109189;1254;60169;-72
2023/09/04 06:45:28;;;;;;;12.30;6.20;;;;;;;22.56;48.35;100988.81;109170;1254;60057;-70
2023/09/04 06:47:58;;;;;;;9.70;5.90;;;;;;;22.67;48.07;100983.35;109260;1254;72816;-71
2023/09/04 06:54:00;;;;;;;7.10;4.90;;;;;;;22.99;47.34;100989.31;104722;1294;613333;-72
2023/09/04 06:56:31;;;;;;;7.20;5.00;;;;;;;23.14;46.64;100993.09;107340;1268;60147;-72
2023/09/04 06:59:04;;;;;;;8.10;5.10;;;;;;;23.25;46.23;100986.48;107380;1263;61465;-72
2023/09/04 07:01:34;;;;;;;9.50;5.20;;;;;;;23.38;46.32;100985.58;107324;1268;72141;-73
2023/09/04 07:04:02;;;;;;;7.80;5.10;;;;;;;23.54;45.56;100989.44;107359;1269;72788;-73
2023/09/04 07:06:29;;;;;;;7.50;4.90;;;;;;;23.64;44.76;100984.96;107009;1263;614790;-72
2023/09/04 07:09:03;;;;;;;6.20;4.00;;;;;;;23.73;44.83;100989.02;107510;1264;60539;-72
2023/09/04 07:11:33;;;;;;;6.00;4.20;;;;;;;23.83;43.90;100990.25;107536;1262;59376;-72
2023/09/04 07:14:04;;;;;;;6.50;4.90;;;;;;;23.89;43.51;100988.58;107567;1261;72147;-72
2023/09/04 07:16:37;;;;;;;7.10;4.70;;;;;;;23.97;43.68;100989.33;107544;1263;71457;-71
2023/09/04 07:19:22;;;;;;;6.40;4.30;;;;;;;24.11;43.75;100989.49;107481;1264;72949;-71
2023/09/04 07:21:52;;;;;;;6.40;3.90;;;;;;;24.29;43.56;100987.23;107665;1260;60202;-72
2023/09/04 07:24:21;;;;;;;5.70;4.10;;;;;;;24.50;43.43;100989.34;107647;1261;60756;-73
2023/09/04 07:27:03;;;;;;;6.00;4.30;;;;;;;24.70;42.80;100989.42;107642;1260;73397;-72
2023/09/04 07:29:33;;;;;;;8.20;4.50;;;;;;;24.86;42.15;100992.98;107725;1263;72780;-71
2023/09/04 07:32:02;;;;;;;5.90;3.70;;;;;;;24.96;41.34;100991.82;107606;1263;72657;-71
2023/09/04 07:34:36;;;;;;;5.70;3.50;;;;;;;24.99;40.17;100989.88;107583;1260;60418;-70
2023/09/04 07:37:11;;;;;;;5.70;3.60;;;;;;;24.99;40.22;100990.71;107556;1259;59516;-72
2023/09/04 07:39:46;;;;;;;5.50;3.70;;;;;;;25.04;40.39;100989.77;107749;1260;71664;-72
2023/09/04 07:42:17;;;;;;;6.40;3.60;;;;;;;25.16;40.38;100990.39;107692;1259;72728;-72
2023/09/04 07:44:47;;;;;;;6.30;3.80;;;;;;;25.30;39.87;100991.36;107699;1261;72740;-71
2023/09/04 07:47:17;;;;;;;7.10;3.60;;;;;;;25.40;39.43;100994.30;107701;1260;60182;-72
2023/09/04 07:49:45;;;;;;;4.20;3.20;;;;;;;25.47;38.89;100995.60;107621;1260;60152;-71
2023/09/04 07:52:14;;;;;;;5.10;2.90;;;;;;;25.48;37.88;100994.23;107603;1259;72774;-70
2023/09/04 07:54:51;;;;;;;5.90;3.20;;;;;;;25.46;38.24;100997.38;107662;1261;72519;-71
2023/09/04 07:57:23;;;;;;;6.90;3.20;;;;;;;25.54;38.99;101003.54;107646;1259;72519;-72
2023/09/04 07:59:59;;;;;;;7.70;3.20;;;;;;;25.66;38.52;101001.21;107660;1262;60693;-73
2023/09/04 08:02:28;;;;;;;4.10;3.00;;;;;;;25.80;37.65;101000.05;107700;1259;60340;-72
2023/09/04 08:04:57;;;;;;;5.10;3.00;;;;;;;25.86;37.26;101000.23;107600;1260;73138;-72
2023/09/04 08:07:27;;;;;;;5.50;2.70;;;;;;;25.91;37.28;100999.05;107622;1261;72631;-73
2023/09/04 08:10:00;;;;;;;4.60;2.80;;;;;;;25.95;36.82;101002.73;107680;1261;72783;-71
2023/09/04 08:12:31;;;;;;;4.10;2.90;;;;;;;25.93;36.58;101005.41;107559;1259;60269;-71
2023/09/04 08:14:59;;;;;;;5.30;3.20;;;;;;;25.91;37.22;101004.98;107900;1257;60286;-72
2023/09/04 08:17:31;;;;;;;4.30;2.60;;;;;;;26.01;37.52;101006.88;108001;1257;73029;-73
2023/09/04 08:20:03;;;;;;;5.10;2.80;;;;;;;26.09;36.28;101006.30;107814;1256;72705;-72
2023/09/04 08:22:32;;;;;;;5.80;3.30;;;;;;;26.08;36.50;101003.85;107812;1257;72654;-71
2023/09/04 08:25:04;;;;;;;5.50;3.00;;;;;;;26.09;36.44;101006.39;107871;1257;60600;-72
2023/09/04 08:27:32;;;;;;;4.70;2.70;;;;;;;26.14;36.11;101009.09;107837;1257;60363;-71
2023/09/04 08:30:02;;;;;;;4.40;2.50;;;;;;;26.21;35.16;101005.37;107764;1260;73118;-72
2023/09/04 08:32:30;;;;;;;4.10;2.60;;;;;;;26.21;35.06;101001.92;107823;1257;71251;-72
2023/09/04 08:34:58;;;;;;;4.10;2.60;;;;;;;26.19;35.59;101003.75;107835;1257;71730;-71
2023/09/04 08:37:33;;;;;;;4.80;2.60;;;;;;;26.16;35.27;101002.73;107887;1257;60318;-72
2023/09/04 08:40:02;;;;;;;6.70;2.50;;;;;;;26.09;35.65;101002.23;107795;1256;59539;-70
2023/09/04 08:42:32;;;;;;;4.40;2.70;;;;;;;26.12;36.25;101006.16;107853;1257;74101;-72
2023/09/04 08:45:00;;;;;;;5.20;2.90;;;;;;;26.17;35.47;101005.58;107835;1257;72693;-72
2023/09/04 08:47:30;;;;;;;4.00;2.70;;;;;;;26.18;35.39;101011.31;107762;1257;72502;-72
2023/09/04 08:50:01;;;;;;;5.00;2.40;;;;;;;26.22;35.68;101010.95;107812;1256;60286;-73
2023/09/04 08:52:28;;;;;;;3.50;2.20;;;;;;;26.23;34.78;101008.14;107744;1257;60806;-73
2023/09/04 08:54:56;;;;;;;4.80;2.50;;;;;;;26.18;35.70;101005.98;107971;1257;72944;-73
2023/09/04 08:57:26;;;;;;;5.10;2.90;;;;;;;26.16;35.75;101006.98;107990;1257;71675;-72
2023/09/04 09:00:02;;;;;;;4.50;2.30;;;;;;;26.11;35.38;101007.22;107724;1258;71209;-71
2023/09/04 09:02:33;;;;;;;5.00;2.50;;;;;;;26.01;35.05;101004.85;107822;1257;60166;-72
2023/09/04 09:05:02;;;;;;;4.50;2.50;;;;;;;25.97;35.17;101007.63;107905;1257;60190;-72
2023/09/04 09:07:29;;;;;;;4.70;2.50;;;;;;;26.01;35.32;101011.56;107738;1257;73036;-71
2023/09/04 09:10:02;;;;;;;5.00;2.50;;;;;;;26.10;34.77;101011.03;107712;1257;72593;-72
2023/09/04 09:12:30;;;;;;;5.10;2.80;;;;;;;26.24;35.32;101009.98;107929;1260;71795;-71
2023/09/04 09:14:59;;;;;;;4.40;2.40;;;;;;;26.40;35.12;101010.63;107829;1257;59563;-71
2023/09/04 09:17:41;;;;;;;3.90;2.50;;;;;;;26.54;34.86;101006.83;107942;1257;60628;-71
2023/09/04 09:20:35;;;;;;;6.80;2.90;;;;;;;26.59;34.51;101006.73;107827;1257;73013;-72
2023/09/04 09:23:06;;;;;;;4.10;2.60;;;;;;;26.60;34.11;101007.60;107807;1256;72779;-71
2023/09/04 09:25:42;;;;;;;4.40;2.80;;;;;;;26.55;34.15;101011.55;107760;1258;73138;-72
2023/09/04 09:28:11;;;;;;;5.00;3.00;;;;;;;26.52;34.62;101011.70;107849;1257;60220;-71
2023/09/04 09:30:45;;;;;;;3.30;2.00;;;;;;;26.61;34.71;101011.54;107891;1257;60313;-72
2023/09/04 09:33:15;;;;;;;4.10;2.20;;;;;;;26.65;34.16;101011.48;107913;1257;72862;-71
2023/09/04 09:35:44;;;;;;;4.50;2.30;;;;;;;26.66;33.53;101007.05;107601;1256;72590;-72
2023/09/04 09:38:14;;;;;;;3.70;2.40;;;;;;;26.58;33.59;101006.45;107913;1257;73975;-72
2023/09/04 09:40:53;;;;;;;4.20;2.40;;;;;;;26.68;33.75;101006.00;107936;1260;60024;-72
2023/09/04 09:43:22;;;;;;;4.20;2.60;;;;;;;26.75;33.84;101010.55;107890;1257;60024;-72
2023/09/04 09:45:57;;;;;;;3.60;2.50;;;;;;;26.83;33.36;101012.61;107608;1257;73093;-72
2023/09/04 09:48:31;;;;;;;5.80;2.30;;;;;;;26.78;32.57;101011.25;107604;1257;72639;-72
2023/09/04 09:51:06;;;;;;;4.70;2.50;;;;;;;26.75;33.30;101013.30;107907;1260;71341;-73
2023/09/04 09:53:44;;;;;;;4.10;2.50;;;;;;;26.83;33.67;101012.30;107766;1257;61347;-71
2023/09/04 09:56:13;;;;;;;3.90;2.60;;;;;;;26.89;32.79;101011.89;107790;1256;60158;-71
2023/09/04 09:58:42;;;;;;;4.20;2.80;;;;;;;26.94;32.60;101009.64;107766;1256;72780;-72
2023/09/04 10:01:18;;;;;;;5.30;2.40;;;;;;;26.94;32.46;101008.86;107838;1257;63806;-72
2023/09/04 10:03:47;;;;;;;3.30;2.30;;;;;;;26.91;32.22;101009.19;107819;1257;71720;-71
2023/09/04 10:06:23;;;;;;;5.70;2.80;;;;;;;26.89;32.62;101009.70;107825;1257;60333;-71
2023/09/04 10:08:54;;;;;;;5.10;2.60;;;;;;;26.93;32.73;101007.52;107690;1257;61179;-73
2023/09/04 10:11:26;;;;;;;5.40;2.40;;;;;;;26.95;32.47;101005.61;107787;1257;73193;-71
2023/09/04 10:14:03;;;;;;;4.00;2.30;;;;;;;26.99;32.63;101008.73;107761;1257;72857;-72
2023/09/04 10:16:45;;;;;;;6.60;2.60;;;;;;;27.07;32.43;101010.02;107703;1256;72482;-71
2023/09/04 10:19:24;;;;;;;4.20;2.50;;;;;;;27.20;32.40;101016.75;107831;1260;61408;-71
2023/09/04 10:22:08;;;;;;;5.00;2.90;;;;;;;27.29;32.26;101010.91;107817;1257;60257;-71
2023/09/04 10:24:49;;;;;;;6.70;2.90;;;;;;;27.40;31.75;101011.85;107866;1257;73079;-71
2023/09/04 10:27:17;;;;;;;5.10;2.60;;;;;;;27.46;31.18;101011.81;107860;1256;72800;-71
2023/09/04 10:29:55;;;;;;;6.10;2.50;;;;;;;27.51;31.61;101016.77;107846;1257;71692;-71
2023/09/04 10:32:23;;;;;;;5.50;2.60;;;;;;;27.54;31.53;101011.11;107877;1256;59577;-70
2023/09/04 10:34:58;;;;;;;4.40;2.80;;;;;;;27.61;31.90;101010.55;107867;1256;59622;-71
2023/09/04 10:37:29;;;;;;;5.90;3.50;;;;;;;27.64;31.98;101004.02;107763;1257;63168;-72
2023/09/04 10:39:58;;;;;;;6.30;3.50;;;;;;;27.63;32.56;101005.64;107823;1260;72656;-71
2023/09/04 10:42:34;;;;;;;4.50;3.00;;;;;;;27.61;32.98;101013.38;107874;1256;72477;-72
2023/09/04 10:45:18;;;;;;;6.90;3.40;;;;;;;27.52;33.04;101012.25;107610;1256;60755;-70
2023/09/04 10:47:51;;;;;;;5.60;3.20;;;;;;;27.34;33.35;101011.81;107762;1256;60477;-70
2023/09/04 10:50:37;;;;;;;5.80;3.10;;;;;;;27.25;33.46;101005.73;107774;1256;72900;-71
2023/09/04 10:53:11;;;;;;;4.90;2.90;;;;;;;27.21;33.36;101009.01;107824;1257;71313;-71
2023/09/04 10:55:48;;;;;;;4.90;2.80;;;;;;;27.24;33.61;101006.80;107880;1259;72751;-70
2023/09/04 10:58:16;;;;;;;4.20;2.90;;;;;;;27.29;33.83;101008.09;107697;1262;60101;-70
2023/09/04 11:00:45;;;;;;;4.50;3.00;;;;;;;27.29;33.64;101007.86;107828;1257;60845;-70
2023/09/04 11:03:29;;;;;;;5.90;3.50;;;;;;;27.24;33.39;101013.62;107898;1257;71528;-70
2023/09/04 11:06:14;;;;;;;6.20;3.50;;;;;;;27.21;33.66;101014.73;107817;1257;73200;-70
2023/09/04 11:08:52;;;;;;;5.80;3.80;;;;;;;27.25;33.38;101021.95;107722;1259;74020;-72
2023/09/04 11:11:26;;;;;;;5.80;3.40;;;;;;;27.28;33.37;101016.23;107841;1256;60435;-69
2023/09/04 11:14:06;;;;;;;5.00;3.00;;;;;;;27.30;33.58;101022.70;108052;1256;60544;-78
2023/09/04 11:16:38;;;;;;;5.00;3.30;;;;;;;27.29;33.39;101024.01;108129;1256;72269;-71
2023/09/04 11:19:09;;;;;;;4.80;3.00;;;;;;;27.32;33.60;101023.60;107796;1256;71516;-72
2023/09/04 11:21:38;;;;;;;5.80;3.00;;;;;;;27.39;33.41;101018.48;107691;1259;62730;-72
2023/09/04 11:24:05;;;;;;;5.50;3.00;;;;;;;27.41;32.85;101011.40;107786;1256;60288;-72
2023/09/04 11:26:33;;;;;;;5.30;3.40;;;;;;;27.41;32.93;101009.52;107800;1255;60354;-72
2023/09/04 11:29:04;;;;;;;4.90;3.10;;;;;;;27.48;32.74;101015.07;107810;1260;73879;-71
2023/09/04 11:31:32;;;;;;;5.80;3.50;;;;;;;27.56;32.84;101014.14;107762;1257;71712;-71
2023/09/04 11:33:59;;;;;;;6.40;3.60;;;;;;;27.62;32.31;101015.34;107817;1258;71232;-71
2023/09/04 11:36:26;;;;;;;4.30;2.90;;;;;;;27.63;31.75;101013.64;107727;1256;60430;-71
2023/09/04 11:39:08;;;;;;;5.10;3.10;;;;;;;27.66;31.49;101009.95;107857;1256;60409;-72
2023/09/04 11:41:35;;;;;;;5.20;3.20;;;;;;;27.75;31.70;101012.95;107869;1259;72295;-73
2023/09/04 11:44:04;;;;;;;5.30;2.70;;;;;;;27.86;31.52;101009.17;107913;1257;72543;-71
2023/09/04 11:46:31;;;;;;;4.00;2.80;;;;;;;27.93;30.62;101010.16;108073;1255;72521;-71
2023/09/04 11:48:58;;;;;;;5.10;3.30;;;;;;;27.92;30.65;101010.79;107941;1256;60460;-71
2023/09/04 11:51:30;;;;;;;5.30;2.70;;;;;;;27.92;30.53;101003.71;107892;1256;60335;-71
2023/09/04 11:53:57;;;;;;;7.80;3.40;;;;;;;27.84;30.92;101011.89;107744;1256;73645;-71
2023/09/04 12:06:41;;;;;;;6.60;3.40;;;;;;;27.54;33.38;101013.54;107766;1256;60866;-71
2023/09/04 12:09:08;;;;;;;4.20;2.80;;;;;;;27.48;32.39;101010.75;107861;1257;60418;-71
2023/09/04 12:11:40;;;;;;;4.90;2.70;;;;;;;27.44;31.95;101007.23;107720;1260;73753;-71
2023/09/04 12:14:09;;;;;;;7.70;3.10;;;;;;;27.45;32.09;101007.41;107871;1256;73160;-71
2023/09/04 12:16:37;;;;;;;5.60;3.00;;;;;;;27.50;32.35;101011.95;107822;1257;72784;-71
2023/09/04 12:19:05;;;;;;;5.20;3.30;;;;;;;27.57;32.07;101008.98;107850;1256;60552;-71
2023/09/04 12:21:32;;;;;;;4.70;3.10;;;;;;;27.65;31.97;101008.73;107816;1256;60428;-72
2023/09/04 12:23:59;;;;;;;4.90;3.00;;;;;;;27.71;31.28;101012.38;107921;1258;64313;-70
2023/09/04 12:26:29;;;;;;;4.60;2.70;;;;;;;27.73;30.52;101017.22;107805;1256;63189;-71
2023/09/04 12:28:58;;;;;;;4.20;2.90;;;;;;;27.69;30.74;101014.78;107796;1256;71890;-71